createdAt,value
2019-04-11T00:00:21.489Z,15.20
2019-04-11T00:01:32.542Z,16.40
2019-04-11T00:02:21.009Z,16.30
2019-04-11T00:03:21.645Z,16.30
2019-04-11T00:04:22.066Z,16.00
2019-04-11T00:05:21.169Z,14.10
2019-04-11T00:06:21.378Z,18.10
2019-04-11T00:07:22.394Z,14.70
2019-04-11T00:08:21.740Z,16.40
2019-04-11T00:09:21.379Z,15.50
2019-04-11T00:10:21.434Z,16.90
2019-04-11T00:11:21.885Z,18.60
2019-04-11T00:12:22.150Z,15.70
2019-04-11T00:13:24.340Z,16.10
2019-04-11T00:14:22.112Z,17.90
2019-04-11T00:15:21.703Z,17.50
2019-04-11T00:16:21.754Z,19.30
2019-04-11T00:17:21.804Z,15.30
2019-04-11T00:18:22.866Z,14.60
2019-04-11T00:19:23.116Z,17.20
2019-04-11T00:20:22.195Z,17.80
2019-04-11T00:21:22.477Z,16.60
2019-04-11T00:22:22.070Z,16.90
2019-04-11T00:23:22.126Z,17.30
2019-04-11T00:24:22.903Z,18.30
2019-04-11T00:25:23.190Z,16.40
2019-04-11T00:26:22.282Z,15.40
2019-04-11T00:27:22.336Z,15.00
2019-04-11T00:28:23.633Z,17.40
2019-04-11T00:29:22.690Z,17.50
2019-04-11T00:30:22.494Z,15.50
2019-04-11T00:31:23.029Z,17.30
2019-04-11T00:32:22.600Z,17.40
2019-04-11T00:33:23.658Z,19.10
2019-04-11T00:34:22.714Z,17.20
2019-04-11T00:35:23.802Z,18.00
2019-04-11T00:36:22.811Z,16.50
2019-04-11T00:37:23.209Z,16.60
2019-04-11T00:38:23.532Z,15.80
2019-04-11T00:39:23.650Z,18.00
2019-04-11T00:40:23.022Z,17.40
2019-04-11T00:41:23.902Z,22.00
2019-04-11T00:42:23.128Z,18.90
2019-04-11T00:43:31.670Z,15.50
2019-04-11T00:44:23.233Z,20.30
2019-04-11T00:45:23.363Z,16.40
2019-04-11T00:46:24.480Z,20.40
2019-04-11T00:47:23.391Z,15.60
2019-04-11T00:48:23.858Z,16.50
2019-04-11T00:49:24.188Z,13.90
2019-04-11T00:50:23.548Z,15.90
2019-04-11T00:51:23.649Z,14.20
2019-04-11T00:52:23.654Z,16.50
2019-04-11T00:53:23.707Z,20.30
2019-04-11T00:54:24.730Z,16.40
2019-04-11T00:55:23.900Z,18.00
2019-04-11T00:56:24.191Z,17.70
2019-04-11T00:57:25.112Z,15.40
2019-04-11T00:58:23.970Z,19.60
2019-04-11T00:59:24.585Z,17.80
2019-04-11T01:00:24.075Z,18.00
2019-04-11T01:01:24.126Z,15.40
2019-04-11T01:02:25.185Z,16.10
2019-04-11T01:03:24.324Z,16.20
2019-04-11T01:04:25.456Z,15.90
2019-04-11T01:05:25.542Z,18.60
2019-04-11T01:06:24.391Z,15.40
2019-04-11T01:07:24.961Z,16.00
2019-04-11T01:08:24.495Z,20.60
2019-04-11T01:09:24.548Z,18.10
2019-04-11T01:10:24.632Z,16.00
2019-04-11T01:11:24.799Z,15.20
2019-04-11T01:12:24.830Z,16.00
2019-04-11T01:13:25.825Z,17.60
2019-04-11T01:14:25.782Z,15.90
2019-04-11T01:15:24.862Z,15.90
2019-04-11T01:16:24.915Z,16.40
2019-04-11T01:17:25.377Z,15.30
2019-04-11T01:18:25.734Z,16.90
2019-04-11T01:19:25.072Z,18.10
2019-04-11T01:20:25.124Z,15.40
2019-04-11T01:21:26.381Z,16.20
2019-04-11T01:22:26.434Z,16.00
2019-04-11T01:23:25.281Z,17.10
2019-04-11T01:24:25.976Z,15.60
2019-04-11T01:25:25.403Z,18.30
2019-04-11T01:26:26.614Z,17.10
2019-04-11T01:27:25.737Z,15.50
2019-04-11T01:28:25.542Z,18.70
2019-04-11T01:29:25.594Z,17.90
2019-04-11T01:30:25.647Z,16.10
2019-04-11T01:31:25.702Z,18.20
2019-04-11T01:32:26.407Z,19.30
2019-04-11T01:33:25.803Z,21.60
2019-04-11T01:34:26.680Z,16.70
2019-04-11T01:35:25.907Z,16.80
2019-04-11T01:36:26.944Z,15.20
2019-04-11T01:37:26.074Z,16.10
2019-04-11T01:38:26.212Z,16.80
2019-04-11T01:39:26.772Z,16.00
2019-04-11T01:40:26.171Z,16.30
2019-04-11T01:41:26.693Z,15.70
2019-04-11T01:42:27.052Z,17.90
2019-04-11T01:43:26.326Z,18.70
2019-04-11T01:44:26.379Z,17.30
2019-04-11T01:45:27.470Z,15.40
2019-04-11T01:46:26.488Z,16.40
2019-04-11T01:47:26.844Z,17.60
2019-04-11T01:48:27.797Z,14.90
2019-04-11T01:49:26.640Z,18.10
2019-04-11T01:50:27.169Z,15.30
2019-04-11T01:51:26.744Z,17.20
2019-04-11T01:52:26.796Z,17.60
2019-04-11T01:53:26.893Z,17.70
2019-04-11T01:54:27.949Z,16.10
2019-04-11T01:55:26.954Z,17.40
2019-04-11T01:56:27.350Z,14.70
2019-04-11T01:57:27.631Z,17.30
2019-04-11T01:58:27.107Z,16.90
2019-04-11T01:59:27.165Z,17.40
2019-04-11T02:00:28.080Z,15.50
2019-04-11T02:01:28.499Z,15.40
2019-04-11T02:02:28.604Z,16.40
2019-04-11T02:03:27.495Z,15.20
2019-04-11T02:04:27.915Z,19.20
2019-04-11T02:05:27.472Z,16.90
2019-04-11T02:06:27.729Z,17.40
2019-04-11T02:07:28.809Z,15.90
2019-04-11T02:08:27.631Z,14.90
2019-04-11T02:09:28.343Z,15.60
2019-04-11T02:10:28.697Z,17.70
2019-04-11T02:11:27.785Z,14.80
2019-04-11T02:12:28.960Z,16.30
2019-04-11T02:13:28.014Z,16.10
2019-04-11T02:14:28.062Z,15.40
2019-04-11T02:15:28.241Z,16.40
2019-04-11T02:16:29.257Z,18.40
2019-04-11T02:17:28.097Z,16.40
2019-04-11T02:18:28.151Z,16.50
2019-04-11T02:19:28.211Z,16.20
2019-04-11T02:20:29.136Z,16.60
2019-04-11T02:21:29.469Z,18.20
2019-04-11T02:22:28.590Z,17.50
2019-04-11T02:23:28.860Z,17.70
2019-04-11T02:24:28.459Z,17.00
2019-04-11T02:25:28.511Z,17.30
2019-04-11T02:26:29.359Z,14.90
2019-04-11T02:27:28.618Z,17.10
2019-04-11T02:28:28.778Z,18.60
2019-04-11T02:29:29.747Z,20.00
2019-04-11T02:30:30.514Z,16.70
2019-04-11T02:31:30.438Z,16.80
2019-04-11T02:32:29.330Z,16.60
2019-04-11T02:33:30.518Z,15.20
2019-04-11T02:34:29.649Z,16.90
2019-04-11T02:35:29.034Z,19.80
2019-04-11T02:36:30.053Z,19.00
2019-04-11T02:37:29.457Z,15.00
2019-04-11T02:38:30.417Z,16.30
2019-04-11T02:39:31.167Z,15.60
2019-04-11T02:40:30.050Z,17.40
2019-04-11T02:41:29.877Z,17.30
2019-04-11T02:42:30.666Z,17.10
2019-04-11T02:43:29.637Z,16.80
2019-04-11T02:44:45.476Z,19.00
2019-04-11T02:45:42.868Z,16.60
2019-04-11T02:46:40.755Z,17.00
2019-04-11T02:47:32.457Z,17.30
2019-04-11T02:48:31.037Z,16.00
2019-04-11T02:49:31.173Z,16.90
2019-04-11T02:50:30.042Z,18.80
2019-04-11T02:51:31.177Z,16.90
2019-04-11T02:52:31.175Z,15.70
2019-04-11T02:53:30.777Z,18.20
2019-04-11T02:54:30.666Z,18.20
2019-04-11T02:55:31.672Z,17.20
2019-04-11T02:56:31.227Z,18.00
2019-04-11T02:57:30.189Z,16.60
2019-04-11T02:58:31.754Z,17.80
2019-04-11T02:59:30.579Z,16.80
2019-04-11T03:00:31.142Z,16.10
2019-04-11T03:01:31.934Z,16.50
2019-04-11T03:02:30.866Z,18.70
2019-04-11T03:03:32.091Z,18.60
2019-04-11T03:04:31.075Z,13.60
2019-04-11T03:05:31.027Z,14.10
2019-04-11T03:06:31.091Z,16.40
2019-04-11T03:07:32.005Z,18.90
2019-04-11T03:08:34.215Z,19.10
2019-04-11T03:09:31.359Z,16.30
2019-04-11T03:10:31.397Z,15.20
2019-04-11T03:11:32.541Z,15.90
2019-04-11T03:12:31.961Z,17.20
2019-04-11T03:13:33.186Z,15.90
2019-04-11T03:14:46.156Z,17.00
2019-04-11T03:15:44.619Z,17.40
2019-04-11T03:16:42.941Z,17.60
2019-04-11T03:17:36.139Z,15.60
2019-04-11T03:18:49.430Z,16.10
2019-04-11T03:19:43.890Z,16.30
2019-04-11T03:20:39.560Z,15.30
2019-04-11T03:21:36.746Z,15.30
2019-04-11T03:22:32.154Z,13.90
2019-04-11T03:23:33.036Z,14.80
2019-04-11T03:24:33.447Z,16.20
2019-04-11T03:25:33.054Z,16.60
2019-04-11T03:26:33.439Z,16.60
2019-04-11T03:27:32.590Z,17.10
2019-04-11T03:28:33.504Z,20.10
2019-04-11T03:29:33.758Z,17.10
2019-04-11T03:30:51.829Z,14.60
2019-04-11T03:32:10.920Z,17.50
2019-04-11T03:33:17.283Z,15.80
2019-04-11T03:36:28.621Z,15.00
2019-04-11T03:37:55.128Z,16.20
2019-04-11T03:38:55.232Z,16.90
2019-04-11T03:39:50.776Z,16.00
2019-04-11T03:40:50.512Z,19.50
2019-04-11T03:41:53.566Z,18.50
2019-04-11T03:42:49.460Z,15.30
2019-04-11T03:43:45.169Z,18.50
2019-04-11T03:44:38.346Z,17.40
2019-04-11T03:45:52.467Z,17.30
2019-04-11T03:46:49.207Z,18.60
2019-04-11T03:47:44.812Z,15.90
2019-04-11T03:48:43.729Z,20.40
2019-04-11T03:49:43.250Z,16.40
2019-04-11T03:50:34.895Z,17.10
2019-04-11T03:51:33.987Z,17.40
2019-04-11T03:52:34.627Z,19.40
2019-04-11T03:53:34.258Z,16.00
2019-04-11T03:54:34.230Z,15.10
2019-04-11T03:55:34.867Z,16.00
2019-04-11T03:56:34.569Z,18.80
2019-04-11T03:57:34.258Z,15.00
2019-04-11T03:58:33.607Z,19.10
2019-04-11T03:59:34.307Z,14.90
2019-04-11T04:00:36.355Z,15.10
2019-04-11T04:01:34.100Z,18.40
2019-04-11T04:02:34.837Z,15.80
2019-04-11T04:03:34.233Z,15.20
2019-04-11T04:04:35.258Z,17.20
2019-04-11T04:05:36.576Z,17.60
2019-04-11T04:06:33.726Z,17.40
2019-04-11T04:07:34.033Z,13.50
2019-04-11T04:08:34.350Z,15.80
2019-04-11T04:09:35.273Z,16.30
2019-04-11T04:10:34.099Z,16.50
2019-04-11T04:11:34.766Z,17.90
2019-04-11T04:12:35.631Z,18.30
2019-04-11T04:13:34.544Z,16.30
2019-04-11T04:14:34.702Z,15.90
2019-04-11T04:15:47.184Z,16.80
2019-04-11T04:16:40.775Z,16.50
2019-04-11T04:17:35.278Z,19.10
2019-04-11T04:18:36.103Z,16.40
2019-04-11T04:19:35.392Z,18.90
2019-04-11T04:20:35.227Z,15.80
2019-04-11T04:21:35.249Z,16.90
2019-04-11T04:22:35.609Z,15.40
2019-04-11T04:23:35.938Z,15.50
2019-04-11T04:24:39.327Z,15.10
2019-04-11T04:25:34.834Z,15.90
2019-04-11T04:26:35.551Z,13.50
2019-04-11T04:27:35.397Z,17.00
2019-04-11T04:28:35.750Z,16.30
2019-04-11T04:29:37.183Z,17.10
2019-04-11T04:30:36.001Z,16.70
2019-04-11T04:31:35.172Z,15.10
2019-04-11T04:32:36.227Z,17.40
2019-04-11T04:33:36.108Z,18.40
2019-04-11T04:34:36.049Z,15.40
2019-04-11T04:35:38.811Z,15.50
2019-04-11T04:36:35.247Z,16.60
2019-04-11T04:37:35.296Z,15.50
2019-04-11T04:38:35.579Z,17.30
2019-04-11T04:39:36.956Z,17.00
2019-04-11T04:40:49.954Z,17.10
2019-04-11T04:41:42.922Z,14.80
2019-04-11T04:42:40.383Z,16.90
2019-04-11T04:43:36.512Z,16.10
2019-04-11T04:44:35.655Z,16.60
2019-04-11T04:45:54.511Z,16.30
2019-04-11T04:46:52.780Z,15.40
2019-04-11T04:47:42.201Z,17.40
2019-04-11T04:48:35.859Z,16.80
2019-04-11T04:49:36.511Z,15.20
2019-04-11T04:50:36.694Z,16.50
2019-04-11T04:51:37.265Z,14.90
2019-04-11T04:52:38.032Z,13.60
2019-04-11T04:53:36.246Z,18.10
2019-04-11T04:54:36.536Z,17.50
2019-04-11T04:55:36.765Z,15.90
2019-04-11T04:56:37.514Z,16.60
2019-04-11T04:57:37.652Z,16.70
2019-04-11T04:58:37.881Z,14.90
2019-04-11T04:59:38.398Z,15.70
2019-04-11T05:00:37.646Z,19.00
2019-04-11T05:01:37.349Z,16.10
2019-04-11T05:02:37.362Z,15.90
2019-04-11T05:03:37.931Z,16.60
2019-04-11T05:04:38.168Z,15.80
2019-04-11T05:05:38.308Z,17.60
2019-04-11T05:06:36.782Z,14.90
2019-04-11T05:07:40.220Z,14.70
2019-04-11T05:08:36.877Z,17.10
2019-04-11T05:09:38.364Z,15.60
2019-04-11T05:10:38.160Z,18.80
2019-04-11T05:11:38.278Z,15.40
2019-04-11T05:12:38.629Z,16.80
2019-04-11T05:13:38.644Z,15.80
2019-04-11T05:14:37.381Z,16.00
2019-04-11T05:15:38.421Z,14.90
2019-04-11T05:16:37.633Z,14.70
2019-04-11T05:17:38.697Z,14.30
2019-04-11T05:18:37.386Z,16.60
2019-04-11T05:19:38.381Z,14.90
2019-04-11T05:20:38.529Z,16.10
2019-04-11T05:21:37.544Z,13.60
2019-04-11T05:22:37.587Z,15.90
2019-04-11T05:23:37.640Z,14.50
2019-04-11T05:24:38.857Z,14.00
2019-04-11T05:25:38.842Z,14.80
2019-04-11T05:26:37.792Z,14.10
2019-04-11T05:27:37.924Z,14.10
2019-04-11T05:28:37.894Z,17.60
2019-04-11T05:29:37.944Z,13.00
2019-04-11T05:30:37.995Z,14.30
2019-04-11T05:31:38.728Z,16.70
2019-04-11T05:32:38.097Z,16.00
2019-04-11T05:33:39.111Z,19.10
2019-04-11T05:34:39.276Z,17.30
2019-04-11T05:35:38.249Z,16.60
2019-04-11T05:36:38.736Z,13.50
2019-04-11T05:37:39.641Z,15.90
2019-04-11T05:38:38.402Z,17.40
2019-04-11T05:39:38.464Z,16.10
2019-04-11T05:40:38.505Z,17.40
2019-04-11T05:41:42.101Z,14.00
2019-04-11T05:42:39.638Z,16.40
2019-04-11T05:43:41.295Z,13.70
2019-04-11T05:44:40.317Z,14.10
2019-04-11T05:45:38.760Z,19.40
2019-04-11T05:46:49.142Z,15.70
2019-04-11T05:47:39.299Z,17.00
2019-04-11T05:48:39.063Z,17.50
2019-04-11T05:49:40.824Z,14.20
2019-04-11T05:50:44.253Z,18.00
2019-04-11T05:51:41.646Z,16.30
2019-04-11T05:52:39.992Z,15.20
2019-04-11T05:53:39.232Z,17.60
2019-04-11T05:54:41.865Z,14.10
2019-04-11T05:55:43.257Z,12.10
2019-04-11T05:56:39.553Z,14.80
2019-04-11T05:57:40.436Z,14.90
2019-04-11T05:58:42.124Z,12.10
2019-04-11T05:59:39.480Z,15.20
2019-04-11T06:00:40.897Z,14.20
2019-04-11T06:01:39.581Z,15.40
2019-04-11T06:02:39.631Z,15.70
2019-04-11T06:03:43.256Z,12.60
2019-04-11T06:04:40.590Z,16.10
2019-04-11T06:05:40.789Z,14.20
2019-04-11T06:06:40.329Z,13.70
2019-04-11T06:07:42.075Z,13.40
2019-04-11T06:08:39.944Z,15.30
2019-04-11T06:09:41.620Z,15.70
2019-04-11T06:10:42.646Z,16.30
2019-04-11T06:11:41.172Z,13.90
2019-04-11T06:12:41.337Z,15.20
2019-04-11T06:13:40.650Z,12.70
2019-04-11T06:14:40.250Z,15.70
2019-04-11T06:15:42.809Z,15.70
2019-04-11T06:16:46.173Z,14.80
2019-04-11T06:17:40.758Z,17.70
2019-04-11T06:18:43.846Z,15.70
2019-04-11T06:19:41.558Z,15.70
2019-04-11T06:20:40.558Z,17.50
2019-04-11T06:21:40.609Z,16.80
2019-04-11T06:22:40.661Z,16.10
2019-04-11T06:23:40.712Z,15.00
2019-04-11T06:24:40.764Z,17.30
2019-04-11T06:25:44.542Z,16.70
2019-04-11T06:26:40.869Z,17.20
2019-04-11T06:27:42.813Z,15.30
2019-04-11T06:28:40.971Z,19.30
2019-04-11T06:29:41.080Z,15.30
2019-04-11T06:30:42.228Z,15.90
2019-04-11T06:31:42.253Z,17.00
2019-04-11T06:32:41.180Z,16.30
2019-04-11T06:33:41.240Z,17.10
2019-04-11T06:34:41.714Z,19.40
2019-04-11T06:35:41.336Z,16.10
2019-04-11T06:36:41.387Z,16.30
2019-04-11T06:37:41.612Z,16.60
2019-04-11T06:38:41.491Z,18.00
2019-04-11T06:39:41.544Z,15.50
2019-04-11T06:40:41.862Z,17.80
2019-04-11T06:41:41.649Z,17.00
2019-04-11T06:42:41.703Z,15.90
2019-04-11T06:43:42.592Z,13.60
2019-04-11T06:44:41.809Z,14.40
2019-04-11T06:45:41.923Z,15.70
2019-04-11T06:46:50.477Z,13.40
2019-04-11T06:47:43.068Z,15.20
2019-04-11T06:48:42.204Z,16.70
2019-04-11T06:49:42.575Z,16.20
2019-04-11T06:50:42.120Z,15.60
2019-04-11T06:51:42.172Z,15.80
2019-04-11T06:52:43.299Z,14.90
2019-04-11T06:53:42.279Z,14.00
2019-04-11T06:54:43.382Z,15.00
2019-04-11T06:55:42.697Z,17.70
2019-04-11T06:56:43.384Z,14.10
2019-04-11T06:57:42.495Z,14.10
2019-04-11T06:58:43.642Z,15.40
2019-04-11T06:59:42.965Z,15.30
2019-04-11T07:00:42.648Z,14.20
2019-04-11T07:01:42.700Z,15.70
2019-04-11T07:02:42.754Z,18.70
2019-04-11T07:03:42.810Z,13.20
2019-04-11T07:04:43.848Z,14.00
2019-04-11T07:05:42.913Z,12.30
2019-04-11T07:06:43.908Z,12.20
2019-04-11T07:07:43.111Z,14.20
2019-04-11T07:08:43.073Z,18.90
2019-04-11T07:09:43.142Z,11.30
2019-04-11T07:10:43.180Z,10.90
2019-04-11T07:11:43.234Z,11.20
2019-04-11T07:12:43.287Z,16.20
2019-04-11T07:13:43.409Z,9.50
2019-04-11T07:14:43.415Z,10.10
2019-04-11T07:15:44.230Z,11.80
2019-04-11T07:16:44.636Z,10.80
2019-04-11T07:17:43.851Z,9.90
2019-04-11T07:18:44.226Z,10.60
2019-04-11T07:19:44.484Z,10.30
2019-04-11T07:20:43.751Z,10.80
2019-04-11T07:21:44.041Z,16.80
2019-04-11T07:22:43.822Z,10.90
2019-04-11T07:23:44.670Z,13.70
2019-04-11T07:24:43.930Z,12.00
2019-04-11T07:25:45.075Z,12.80
2019-04-11T07:26:44.036Z,15.90
2019-04-11T07:27:45.073Z,11.30
2019-04-11T07:28:44.145Z,11.00
2019-04-11T07:29:44.303Z,11.20
2019-04-11T07:30:45.181Z,10.00
2019-04-11T07:31:44.376Z,10.90
2019-04-11T07:32:45.104Z,9.50
2019-04-11T07:33:45.079Z,11.00
2019-04-11T07:34:45.657Z,10.50
2019-04-11T07:35:45.128Z,9.60
2019-04-11T07:36:44.577Z,12.20
2019-04-11T07:37:44.839Z,9.00
2019-04-11T07:38:45.552Z,10.70
2019-04-11T07:39:45.061Z,10.30
2019-04-11T07:40:44.793Z,10.30
2019-04-11T07:41:45.560Z,9.40
2019-04-11T07:42:44.904Z,10.10
2019-04-11T07:43:44.967Z,10.40
2019-04-11T07:44:45.223Z,8.60
2019-04-11T07:45:45.063Z,9.60
2019-04-11T07:46:45.118Z,11.40
2019-04-11T07:47:46.078Z,18.00
2019-04-11T07:48:45.228Z,12.00
2019-04-11T07:49:45.279Z,9.20
2019-04-11T07:50:46.434Z,10.80
2019-04-11T07:51:45.389Z,10.90
2019-04-11T07:52:45.446Z,10.50
2019-04-11T07:53:45.942Z,9.20
2019-04-11T07:54:45.722Z,11.90
2019-04-11T07:55:46.610Z,9.70
2019-04-11T07:56:46.333Z,9.20
2019-04-11T07:57:46.785Z,10.70
2019-04-11T07:58:45.817Z,12.50
2019-04-11T07:59:46.707Z,10.30
2019-04-11T08:00:49.024Z,10.10
2019-04-11T08:01:46.929Z,10.50
2019-04-11T08:02:46.008Z,11.10
2019-04-11T08:03:46.973Z,9.80
2019-04-11T08:04:47.270Z,9.30
2019-04-11T08:05:46.687Z,10.00
2019-04-11T08:06:46.207Z,9.50
2019-04-11T08:07:46.882Z,9.60
2019-04-11T08:08:47.120Z,12.50
2019-04-11T08:09:46.369Z,9.80
2019-04-11T08:10:46.430Z,11.40
2019-04-11T08:11:47.702Z,10.50
2019-04-11T08:12:47.869Z,9.50
2019-04-11T08:13:47.189Z,10.20
2019-04-11T08:14:46.744Z,9.70
2019-04-11T08:15:46.696Z,10.60
2019-04-11T08:16:46.928Z,11.00
2019-04-11T08:17:47.991Z,5.30
2019-04-11T08:18:46.859Z,9.50
2019-04-11T08:19:47.017Z,11.60
2019-04-11T08:20:47.799Z,11.00
2019-04-11T08:21:47.182Z,10.20
2019-04-11T08:22:47.498Z,10.50
2019-04-11T08:24:20.518Z,8.20
2019-04-11T08:24:47.191Z,7.60
2019-04-11T08:25:47.518Z,12.40
2019-04-11T08:26:48.374Z,10.10
2019-04-11T08:27:54.655Z,9.00
2019-04-11T08:28:59.269Z,9.20
2019-04-11T08:29:49.946Z,10.70
2019-04-11T08:30:48.814Z,9.70
2019-04-11T08:31:48.686Z,11.90
2019-04-11T08:32:47.627Z,9.40
2019-04-11T08:33:48.848Z,9.10
2019-04-11T08:34:48.000Z,11.20
2019-04-11T08:35:51.620Z,6.90
2019-04-11T08:36:48.932Z,7.80
2019-04-11T08:37:47.908Z,9.90
2019-04-11T08:38:48.776Z,11.70
2019-04-11T08:39:49.082Z,9.70
2019-04-11T08:40:49.126Z,8.90
2019-04-11T08:41:48.122Z,7.80
2019-04-11T08:42:48.672Z,8.00
2019-04-11T08:43:48.232Z,8.50
2019-04-11T08:44:48.286Z,8.40
2019-04-11T08:45:48.547Z,9.80
2019-04-11T08:46:48.404Z,6.60
2019-04-11T08:47:52.624Z,11.00
2019-04-11T08:48:48.971Z,8.70
2019-04-11T08:49:48.564Z,9.00
2019-04-11T08:50:48.617Z,7.40
2019-04-11T08:51:49.595Z,7.40
2019-04-11T08:52:48.761Z,9.40
2019-04-11T08:53:49.032Z,9.70
2019-04-11T08:54:50.056Z,6.40
2019-04-11T08:55:55.374Z,7.40
2019-04-11T08:56:49.436Z,8.60
2019-04-11T08:57:49.860Z,9.30
2019-04-11T08:58:49.101Z,7.80
2019-04-11T08:59:49.398Z,7.30
2019-04-11T09:00:51.046Z,10.20
2019-04-11T09:01:49.221Z,7.10
2019-04-11T09:02:49.275Z,10.00
2019-04-11T09:04:01.342Z,8.50
2019-04-11T09:04:50.318Z,7.60
2019-04-11T09:05:49.440Z,10.60
2019-04-11T09:06:49.503Z,7.50
2019-04-11T09:07:49.870Z,9.50
2019-04-11T09:08:49.663Z,8.40
2019-04-11T09:09:49.700Z,8.20
2019-04-11T09:10:50.690Z,9.40
2019-04-11T09:11:49.815Z,8.90
2019-04-11T09:12:50.883Z,7.70
2019-04-11T09:13:49.882Z,7.10
2019-04-11T09:14:50.593Z,10.20
2019-04-11T09:15:50.822Z,6.60
2019-04-11T09:16:50.052Z,7.40
2019-04-11T09:17:58.933Z,6.70
2019-04-11T09:18:50.283Z,8.30
2019-04-11T09:19:51.392Z,9.00
2019-04-11T09:20:50.269Z,9.00
2019-04-11T09:21:50.826Z,8.80
2019-04-11T09:22:50.385Z,8.00
2019-04-11T09:23:50.435Z,9.00
2019-04-11T09:24:50.612Z,7.90
2019-04-11T09:25:53.240Z,7.80
2019-04-11T09:26:50.600Z,8.50
2019-04-11T09:27:51.032Z,13.70
2019-04-11T09:28:51.587Z,7.40
2019-04-11T09:29:50.767Z,8.40
2019-04-11T09:30:50.821Z,11.70
2019-04-11T09:31:51.714Z,7.10
2019-04-11T09:32:50.937Z,6.50
2019-04-11T09:33:51.042Z,7.20
2019-04-11T09:34:52.186Z,9.70
2019-04-11T09:35:51.303Z,9.70
2019-04-11T09:36:51.365Z,8.20
2019-04-11T09:37:51.799Z,8.20
2019-04-11T09:38:51.290Z,8.60
2019-04-11T09:39:51.321Z,9.10
2019-04-11T09:40:52.115Z,10.00
2019-04-11T09:41:52.417Z,7.40
2019-04-11T09:42:51.531Z,6.80
2019-04-11T09:43:52.615Z,10.30
2019-04-11T09:44:51.617Z,11.00
2019-04-11T09:45:52.584Z,9.80
2019-04-11T09:46:51.713Z,10.20
2019-04-11T09:47:51.955Z,6.60
2019-04-11T09:48:51.833Z,5.60
2019-04-11T09:49:51.876Z,6.80
2019-04-11T09:50:52.987Z,7.90
2019-04-11T09:51:52.079Z,7.90
2019-04-11T09:52:54.398Z,10.30
2019-04-11T09:53:52.921Z,8.50
2019-04-11T09:54:52.622Z,7.60
2019-04-11T09:55:52.218Z,8.20
2019-04-11T09:56:52.266Z,8.70
2019-04-11T09:57:52.598Z,8.20
2019-04-11T09:58:52.377Z,6.40
2019-04-11T09:59:52.433Z,9.70
2019-04-11T10:00:52.931Z,8.80
2019-04-11T10:01:52.548Z,8.30
2019-04-11T10:02:52.775Z,8.10
2019-04-11T10:03:52.954Z,10.10
2019-04-11T10:04:54.307Z,11.50
2019-04-11T10:05:53.093Z,9.20
2019-04-11T10:06:53.229Z,8.00
2019-04-11T10:07:52.878Z,9.50
2019-04-11T10:08:53.192Z,8.00
2019-04-11T10:09:54.191Z,7.70
2019-04-11T10:10:53.334Z,9.40
2019-04-11T10:11:53.118Z,7.60
2019-04-11T10:12:54.201Z,8.50
2019-04-11T10:13:53.346Z,9.50
2019-04-11T10:14:53.638Z,6.90
2019-04-11T10:15:53.655Z,7.00
2019-04-11T10:16:53.393Z,7.30
2019-04-11T10:17:54.758Z,6.50
2019-04-11T10:18:53.677Z,5.70
2019-04-11T10:19:54.136Z,8.50
2019-04-11T10:20:53.606Z,7.80
2019-04-11T10:21:54.379Z,8.70
2019-04-11T10:22:54.429Z,10.00
2019-04-11T10:23:53.773Z,8.10
2019-04-11T10:24:54.784Z,7.30
2019-04-11T10:25:53.887Z,8.40
2019-04-11T10:26:54.023Z,7.80
2019-04-11T10:27:55.161Z,8.60
2019-04-11T10:28:54.054Z,6.30
2019-04-11T10:29:54.690Z,7.10
2019-04-11T10:30:54.167Z,7.80
2019-04-11T10:31:54.859Z,8.70
2019-04-11T10:32:55.296Z,6.70
2019-04-11T10:33:55.427Z,7.80
2019-04-11T10:34:54.390Z,7.80
2019-04-11T10:35:54.542Z,7.90
2019-04-11T10:36:55.709Z,7.70
2019-04-11T10:37:54.559Z,8.60
2019-04-11T10:38:55.097Z,6.70
2019-04-11T10:39:54.674Z,5.50
2019-04-11T10:40:54.732Z,7.50
2019-04-11T10:41:55.965Z,8.00
2019-04-11T10:42:55.896Z,6.90
2019-04-11T10:43:54.903Z,7.30
2019-04-11T10:44:56.172Z,7.30
2019-04-11T10:45:55.288Z,8.10
2019-04-11T10:46:55.757Z,9.60
2019-04-11T10:47:55.966Z,7.30
2019-04-11T10:48:55.230Z,8.40
2019-04-11T10:49:55.252Z,7.70
2019-04-11T10:50:56.182Z,8.40
2019-04-11T10:51:56.046Z,9.30
2019-04-11T10:52:55.430Z,8.50
2019-04-11T10:53:55.496Z,6.80
2019-04-11T10:54:55.549Z,10.70
2019-04-11T10:55:55.767Z,7.40
2019-04-11T10:56:55.821Z,7.30
2019-04-11T10:57:56.187Z,10.40
2019-04-11T10:58:55.797Z,8.30
2019-04-11T10:59:56.583Z,8.10
2019-04-11T11:00:55.912Z,8.90
2019-04-11T11:01:56.122Z,9.00
2019-04-11T11:02:56.038Z,8.20
2019-04-11T11:03:56.095Z,7.90
2019-04-11T11:04:56.864Z,8.70
2019-04-11T11:05:56.216Z,9.00
2019-04-11T11:06:56.279Z,8.80
2019-04-11T11:07:57.163Z,8.20
2019-04-11T11:08:57.375Z,9.50
2019-04-11T11:09:56.721Z,7.00
2019-04-11T11:10:57.692Z,9.30
2019-04-11T11:11:56.835Z,8.90
2019-04-11T11:12:57.295Z,10.30
2019-04-11T11:13:56.712Z,8.70
2019-04-11T11:14:56.774Z,8.00
2019-04-11T11:15:57.969Z,8.00
2019-04-11T11:16:56.903Z,10.40
2019-04-11T11:18:27.215Z,9.20
2019-04-11T11:19:24.605Z,6.50
2019-04-11T11:20:08.540Z,9.60
2019-04-11T11:21:00.847Z,7.60
2019-04-11T11:21:59.872Z,6.70
2019-04-11T11:22:57.274Z,7.20
2019-04-11T11:23:58.489Z,7.60
2019-04-11T11:24:58.057Z,9.50
2019-04-11T11:26:41.054Z,8.80
2019-04-11T11:27:39.967Z,8.10
2019-04-11T11:28:41.046Z,8.00
2019-04-11T11:29:40.439Z,9.30
2019-04-11T11:30:40.165Z,8.40
2019-04-11T11:31:40.760Z,8.80
2019-04-11T11:32:41.179Z,9.90
2019-04-11T11:33:40.608Z,9.40
2019-04-11T11:34:41.104Z,8.30
2019-04-11T11:35:42.485Z,8.70
2019-04-11T11:36:41.624Z,7.80
2019-04-11T11:37:41.622Z,7.40
2019-04-11T11:38:41.823Z,8.30
2019-04-11T11:39:41.412Z,7.90
2019-04-11T11:40:41.637Z,8.80
2019-04-11T11:41:40.915Z,8.60
2019-04-11T11:42:42.098Z,10.00
2019-04-11T11:43:41.249Z,11.90
2019-04-11T11:44:41.276Z,9.60
2019-04-11T11:45:41.627Z,9.30
2019-04-11T11:46:42.542Z,8.50
2019-04-11T11:47:41.686Z,9.00
2019-04-11T11:48:41.754Z,7.90
2019-04-11T11:49:53.382Z,7.10
2019-04-11T11:50:42.619Z,8.30
2019-04-11T11:51:41.586Z,10.10
2019-04-11T11:52:42.823Z,8.20
2019-04-11T11:53:42.596Z,7.30
2019-04-11T11:54:41.825Z,6.80
2019-04-11T11:55:41.741Z,7.30
2019-04-11T11:56:42.427Z,9.60
2019-04-11T11:57:42.705Z,7.30
2019-04-11T11:58:43.515Z,8.00
2019-04-11T11:59:42.840Z,7.60
2019-04-11T12:00:42.146Z,8.00
2019-04-11T12:01:45.313Z,8.30
2019-04-11T12:02:42.400Z,9.80
2019-04-11T12:03:42.476Z,7.90
2019-04-11T12:04:42.315Z,7.50
2019-04-11T12:05:47.108Z,8.50
2019-04-11T12:06:43.024Z,8.10
2019-04-11T12:07:43.085Z,7.60
2019-04-11T12:08:46.625Z,7.60
2019-04-11T12:09:42.632Z,7.30
2019-04-11T12:10:43.814Z,7.30
2019-04-11T12:11:42.753Z,10.00
2019-04-11T12:12:43.862Z,9.00
2019-04-11T12:13:43.290Z,11.90
2019-04-11T12:14:44.934Z,7.40
2019-04-11T12:15:43.526Z,8.90
2019-04-11T12:16:43.935Z,8.00
2019-04-11T12:17:43.137Z,7.10
2019-04-11T12:18:47.226Z,9.00
2019-04-11T12:19:51.140Z,8.50
2019-04-11T12:20:45.319Z,6.60
2019-04-11T12:21:46.272Z,8.60
2019-04-11T12:22:44.376Z,6.60
2019-04-11T12:23:55.565Z,6.70
2019-04-11T12:24:44.781Z,8.70
2019-04-11T12:25:43.657Z,8.20
2019-04-11T12:26:45.779Z,8.90
2019-04-11T12:27:43.800Z,7.40
2019-04-11T12:28:43.829Z,7.90
2019-04-11T12:29:47.845Z,9.50
2019-04-11T12:30:44.170Z,8.20
2019-04-11T12:31:44.066Z,8.70
2019-04-11T12:32:44.415Z,9.20
2019-04-11T12:33:44.145Z,8.00
2019-04-11T12:34:45.177Z,7.10
2019-04-11T12:35:44.413Z,8.20
2019-04-11T12:36:48.009Z,8.40
2019-04-11T12:37:45.432Z,9.70
2019-04-11T12:38:44.460Z,9.20
2019-04-11T12:39:44.526Z,7.60
2019-04-11T12:40:44.588Z,9.40
2019-04-11T12:41:44.651Z,8.70
2019-04-11T12:42:44.719Z,8.30
2019-04-11T12:43:44.777Z,8.40
2019-04-11T12:44:44.841Z,7.60
2019-04-11T12:45:44.905Z,8.00
2019-04-11T12:46:44.968Z,7.70
2019-04-11T12:47:45.093Z,8.50
2019-04-11T12:48:45.095Z,7.10
2019-04-11T12:49:52.795Z,8.90
2019-04-11T12:50:45.220Z,6.40
2019-04-11T12:51:45.285Z,8.30
2019-04-11T12:52:45.347Z,10.10
2019-04-11T12:53:45.412Z,8.20
2019-04-11T12:54:45.478Z,8.00
2019-04-11T12:55:45.540Z,7.60
2019-04-11T12:56:45.631Z,7.20
2019-04-11T12:57:45.666Z,7.10
2019-04-11T12:58:45.726Z,7.70
2019-04-11T12:59:45.791Z,6.90
2019-04-11T13:00:45.857Z,8.30
2019-04-11T13:01:45.974Z,8.30
2019-04-11T13:02:46.369Z,9.30
2019-04-11T13:03:46.070Z,8.40
2019-04-11T13:04:46.107Z,8.70
2019-04-11T13:05:46.170Z,8.40